createdAt,value
2019-05-06T00:00:09.729Z,1.10
2019-05-06T00:03:14.217Z,0.90
2019-05-06T00:06:17.719Z,0.98
2019-05-06T00:09:24.050Z,1.00
2019-05-06T00:12:27.590Z,1.15
2019-05-06T00:15:31.564Z,0.70
2019-05-06T00:18:35.009Z,1.00
2019-05-06T00:21:38.508Z,1.00
2019-05-06T00:24:54.783Z,1.20
2019-05-06T00:28:16.150Z,1.00
2019-05-06T00:31:20.611Z,1.30
2019-05-06T00:34:24.607Z,0.98
2019-05-06T00:37:28.127Z,1.12
2019-05-06T00:40:35.404Z,0.90
2019-05-06T00:43:38.841Z,0.82
2019-05-06T00:46:43.779Z,1.12
2019-05-06T00:49:47.176Z,0.93
2019-05-06T00:52:54.059Z,1.12
2019-05-06T00:55:57.558Z,1.00
2019-05-06T00:59:03.696Z,1.15
2019-05-06T01:02:07.429Z,1.15
2019-05-06T01:05:11.064Z,1.10
2019-05-06T01:08:14.475Z,1.25
2019-05-06T01:11:17.929Z,1.02
2019-05-06T01:14:30.972Z,0.98
2019-05-06T01:17:34.490Z,1.05
2019-05-06T01:20:37.917Z,0.93
2019-05-06T01:23:43.718Z,1.20
2019-05-06T01:26:47.311Z,1.10
2019-05-06T01:29:50.812Z,1.07
2019-05-06T01:32:54.499Z,1.17
2019-05-06T01:35:58.003Z,1.00
2019-05-06T01:39:21.921Z,1.20
2019-05-06T01:42:31.018Z,1.30
2019-05-06T01:45:35.550Z,0.90
2019-05-06T01:48:48.311Z,1.40
2019-05-06T01:51:51.726Z,1.10
2019-05-06T01:54:55.183Z,1.10
2019-05-06T01:57:58.585Z,1.22
2019-05-06T02:01:03.918Z,1.15
2019-05-06T02:04:07.415Z,1.12
2019-05-06T02:07:11.047Z,1.42
2019-05-06T02:10:14.514Z,1.00
2019-05-06T02:13:18.138Z,1.22
2019-05-06T02:16:23.915Z,1.17
2019-05-06T02:19:26.749Z,1.10
2019-05-06T02:22:48.293Z,0.98
2019-05-06T02:25:54.089Z,1.05
2019-05-06T02:28:59.188Z,1.07
2019-05-06T02:32:30.816Z,1.15
2019-05-06T02:35:48.886Z,1.00
2019-05-06T02:38:55.652Z,1.05
2019-05-06T02:42:04.182Z,1.10
2019-05-06T02:45:07.630Z,1.10
2019-05-06T02:48:22.743Z,1.10
2019-05-06T02:51:27.302Z,1.17
2019-05-06T02:54:34.177Z,1.20
2019-05-06T02:57:37.054Z,1.10
2019-05-06T03:00:43.002Z,1.32
2019-05-06T03:03:45.685Z,1.00
2019-05-06T03:06:52.972Z,1.30
2019-05-06T03:09:55.453Z,1.02
2019-05-06T03:12:58.876Z,1.05
2019-05-06T03:16:05.343Z,1.00
2019-05-06T03:19:07.489Z,1.10
2019-05-06T03:22:28.775Z,1.22
2019-05-06T03:25:34.385Z,0.90
2019-05-06T03:28:37.856Z,1.10
2019-05-06T03:31:46.068Z,1.00
2019-05-06T03:35:07.763Z,1.00
2019-05-06T03:37:53.437Z,1.15
2019-05-06T03:40:56.981Z,1.15
2019-05-06T03:44:03.156Z,0.90
2019-05-06T03:47:27.659Z,1.47
2019-05-06T03:50:33.651Z,0.90
2019-05-06T03:53:36.385Z,1.20
2019-05-06T03:56:43.156Z,1.10
2019-05-06T03:59:45.003Z,1.27
2019-05-06T04:02:48.432Z,1.10
2019-05-06T04:05:52.551Z,1.10
2019-05-06T04:08:57.175Z,1.10
2019-05-06T04:12:03.419Z,1.10
2019-05-06T04:15:06.254Z,1.20
2019-05-06T04:18:12.548Z,1.00
2019-05-06T04:21:24.858Z,1.00
2019-05-06T04:25:05.531Z,1.35
2019-05-06T04:28:13.241Z,1.07
2019-05-06T04:31:16.658Z,0.90
2019-05-06T04:34:23.444Z,1.30
2019-05-06T04:37:26.233Z,1.00
2019-05-06T04:40:29.725Z,1.00
2019-05-06T04:43:33.855Z,1.17
2019-05-06T04:46:37.318Z,1.07
2019-05-06T04:49:43.456Z,1.27
2019-05-06T04:52:47.628Z,0.95
2019-05-06T04:55:53.757Z,1.10
2019-05-06T04:58:56.479Z,0.90
2019-05-06T05:02:02.500Z,1.50
2019-05-06T05:05:05.843Z,1.10
2019-05-06T05:08:09.445Z,0.90
2019-05-06T05:11:25.563Z,1.10
2019-05-06T05:14:43.023Z,0.85
2019-05-06T05:17:52.558Z,1.15
2019-05-06T05:20:56.121Z,1.30
2019-05-06T05:24:01.908Z,1.07
2019-05-06T05:27:05.580Z,0.80
2019-05-06T05:30:09.057Z,1.20
2019-05-06T05:33:12.651Z,1.30
2019-05-06T05:36:16.176Z,0.90
2019-05-06T05:39:19.654Z,1.00
2019-05-06T05:42:32.753Z,1.00
2019-05-06T05:45:37.306Z,0.88
2019-05-06T05:48:57.922Z,1.00
2019-05-06T05:52:03.400Z,1.20
2019-05-06T05:55:06.560Z,1.12
2019-05-06T05:58:12.800Z,0.90
2019-05-06T06:01:15.504Z,1.22
2019-05-06T06:04:18.995Z,0.90
2019-05-06T06:07:23.044Z,0.90
2019-05-06T06:10:36.263Z,1.07
2019-05-06T06:13:43.236Z,0.98
2019-05-06T06:17:04.870Z,1.27
2019-05-06T06:20:25.990Z,1.25
2019-05-06T06:23:33.267Z,0.95
2019-05-06T06:26:37.770Z,1.00
2019-05-06T06:29:41.814Z,0.85
2019-05-06T06:32:46.414Z,1.20
2019-05-06T06:35:56.706Z,0.90
2019-05-06T06:39:13.483Z,1.20
2019-05-06T06:42:16.994Z,1.10
2019-05-06T06:45:23.053Z,0.98
2019-05-06T06:48:27.992Z,1.20
2019-05-06T06:51:33.642Z,1.60
2019-05-06T06:54:37.126Z,1.30
2019-05-06T06:57:51.988Z,1.30
2019-05-06T07:01:16.732Z,1.47
2019-05-06T07:04:27.793Z,1.40
2019-05-06T07:07:41.291Z,1.10
2019-05-06T07:10:43.333Z,1.77
2019-05-06T07:13:53.205Z,1.70
2019-05-06T07:16:56.730Z,1.22
2019-05-06T07:20:03.645Z,1.60
2019-05-06T07:23:26.272Z,1.20
2019-05-06T07:26:33.978Z,1.22
2019-05-06T07:29:37.384Z,2.98
2019-05-06T07:32:42.398Z,3.05
2019-05-06T07:35:46.205Z,2.33
2019-05-06T07:38:52.803Z,3.15
2019-05-06T07:41:58.716Z,3.95
2019-05-06T07:45:12.919Z,3.52
2019-05-06T07:48:16.926Z,1.60
2019-05-06T07:51:20.328Z,3.75
2019-05-06T07:54:25.887Z,3.00
2019-05-06T07:57:29.297Z,3.65
2019-05-06T08:00:32.975Z,1.42
2019-05-06T08:03:37.582Z,2.15
2019-05-06T08:06:42.627Z,3.37
2019-05-06T08:09:46.427Z,2.20
2019-05-06T08:12:50.058Z,1.80
2019-05-06T08:15:53.799Z,3.72
2019-05-06T08:18:57.335Z,1.62
2019-05-06T08:22:02.907Z,1.75
2019-05-06T08:25:06.441Z,1.75
2019-05-06T08:28:09.923Z,2.55
2019-05-06T08:31:13.660Z,1.72
2019-05-06T08:34:17.081Z,1.62
2019-05-06T08:37:29.507Z,1.77
2019-05-06T08:40:34.958Z,3.12
2019-05-06T08:43:38.400Z,1.70
2019-05-06T08:46:43.207Z,2.33
2019-05-06T08:50:02.521Z,1.60
2019-05-06T08:53:14.501Z,1.95
2019-05-06T08:56:21.922Z,1.60
2019-05-06T08:59:24.992Z,4.33
2019-05-06T09:02:28.542Z,1.75
2019-05-06T09:05:33.122Z,4.12
2019-05-06T09:08:36.780Z,2.75
2019-05-06T09:11:42.919Z,6.12
2019-05-06T09:14:46.434Z,11.65
2019-05-06T09:17:52.628Z,9.00
2019-05-06T09:20:56.224Z,6.90
2019-05-06T09:24:02.098Z,7.03
2019-05-06T09:27:12.322Z,8.65
2019-05-06T09:30:23.014Z,8.18
2019-05-06T09:33:33.119Z,6.90
2019-05-06T09:36:44.196Z,8.83
2019-05-06T09:39:43.307Z,7.37
2019-05-06T09:42:48.855Z,5.72
2019-05-06T09:45:52.970Z,6.12
2019-05-06T09:49:09.000Z,5.22
2019-05-06T09:52:13.106Z,6.47
2019-05-06T09:55:29.324Z,8.20
2019-05-06T09:58:33.425Z,9.33
2019-05-06T10:01:36.987Z,8.28
2019-05-06T10:04:42.681Z,6.10
2019-05-06T10:07:45.870Z,7.35
2019-05-06T10:10:56.760Z,9.05
2019-05-06T10:13:54.805Z,8.35
2019-05-06T10:16:58.300Z,5.60
2019-05-06T10:20:02.828Z,7.80
2019-05-06T10:23:06.723Z,5.05
2019-05-06T10:26:10.241Z,4.12
2019-05-06T10:29:43.234Z,4.47
2019-05-06T10:32:53.520Z,5.78
2019-05-06T10:36:02.646Z,4.78
2019-05-06T10:39:07.757Z,9.55
2019-05-06T10:42:14.010Z,5.17
2019-05-06T10:45:32.442Z,4.40
2019-05-06T10:48:36.003Z,4.92
2019-05-06T10:51:46.954Z,5.40
2019-05-06T10:54:50.352Z,9.53
2019-05-06T10:57:54.880Z,6.08
2019-05-06T11:01:12.533Z,4.78
2019-05-06T11:04:17.036Z,4.95
2019-05-06T11:07:31.772Z,4.62
2019-05-06T11:10:37.058Z,5.08
2019-05-06T11:13:34.093Z,3.52
2019-05-06T11:16:37.626Z,5.05
2019-05-06T11:19:42.799Z,2.05
2019-05-06T11:22:46.463Z,3.37
2019-05-06T11:25:52.385Z,4.85
2019-05-06T11:28:59.270Z,4.37
2019-05-06T11:32:21.270Z,2.60
2019-05-06T11:35:52.851Z,3.83
2019-05-06T11:38:56.471Z,3.55
2019-05-06T11:42:22.825Z,2.87
2019-05-06T11:45:06.909Z,3.55
2019-05-06T11:48:14.340Z,2.92
2019-05-06T11:51:17.434Z,5.50
2019-05-06T11:54:24.486Z,4.15
2019-05-06T11:57:32.525Z,3.20
2019-05-06T12:00:40.304Z,3.40
2019-05-06T12:03:43.732Z,2.60
2019-05-06T12:06:47.238Z,4.97
2019-05-06T12:09:53.588Z,2.22
2019-05-06T12:12:56.087Z,2.35
2019-05-06T12:16:02.257Z,1.65
2019-05-06T12:19:04.924Z,2.80
2019-05-06T12:22:08.405Z,1.70
2019-05-06T12:25:15.337Z,2.30
2019-05-06T12:28:17.717Z,1.90
2019-05-06T12:31:23.406Z,2.10
2019-05-06T12:34:27.264Z,2.90
2019-05-06T12:37:31.026Z,2.10
2019-05-06T12:40:44.700Z,3.00
2019-05-06T12:43:51.366Z,3.50
2019-05-06T12:47:13.936Z,2.22
2019-05-06T12:50:17.583Z,3.95
2019-05-06T12:53:23.134Z,1.60
2019-05-06T12:56:26.590Z,2.08
2019-05-06T12:59:30.164Z,3.75
2019-05-06T13:02:34.683Z,4.08
2019-05-06T13:05:38.179Z,3.55
2019-05-06T13:08:57.526Z,3.42
2019-05-06T13:11:48.373Z,2.70
2019-05-06T13:14:52.696Z,3.27
2019-05-06T13:17:56.452Z,3.12
2019-05-06T13:20:59.977Z,4.42
2019-05-06T13:24:06.665Z,1.85
2019-05-06T13:27:12.667Z,3.67
2019-05-06T13:30:16.246Z,2.90
2019-05-06T13:33:28.588Z,2.10
2019-05-06T13:36:33.500Z,5.15
2019-05-06T13:39:37.236Z,2.12
2019-05-06T13:42:42.642Z,1.98
2019-05-06T13:45:48.091Z,2.00
2019-05-06T13:48:57.940Z,1.60
2019-05-06T13:52:09.595Z,2.27
2019-05-06T13:55:13.110Z,1.70
2019-05-06T13:58:16.777Z,1.50
2019-05-06T14:01:22.944Z,2.72
2019-05-06T14:04:26.896Z,1.52
2019-05-06T14:07:34.166Z,2.85
2019-05-06T14:10:35.747Z,1.52
2019-05-06T14:13:39.234Z,3.10
2019-05-06T14:16:42.946Z,1.25
2019-05-06T14:19:48.485Z,2.50
2019-05-06T14:22:52.830Z,1.60
2019-05-06T14:26:19.553Z,1.50
2019-05-06T14:29:33.933Z,1.42
2019-05-06T14:32:37.508Z,2.55
2019-05-06T14:35:43.064Z,1.87
2019-05-06T14:38:46.435Z,4.08
2019-05-06T14:41:53.578Z,3.62
2019-05-06T14:44:57.274Z,1.35
2019-05-06T14:48:00.870Z,5.05
2019-05-06T14:51:04.496Z,1.47
2019-05-06T14:54:09.112Z,1.25
2019-05-06T14:57:13.750Z,1.50
2019-05-06T15:00:18.983Z,1.42
2019-05-06T15:03:22.610Z,2.77
2019-05-06T15:06:26.068Z,2.45
2019-05-06T15:09:29.557Z,3.75
2019-05-06T15:12:34.096Z,3.12
2019-05-06T15:15:37.607Z,2.45
2019-05-06T15:18:42.383Z,3.42
2019-05-06T15:21:46.270Z,3.17
2019-05-06T15:24:49.891Z,5.28
2019-05-06T15:27:53.521Z,1.40
2019-05-06T15:31:05.146Z,1.57
2019-05-06T15:34:13.068Z,2.35
2019-05-06T15:37:27.748Z,1.77
2019-05-06T15:40:35.978Z,2.52
2019-05-06T15:43:36.533Z,1.45
2019-05-06T15:46:40.071Z,1.40
2019-05-06T15:49:43.558Z,2.00
2019-05-06T15:52:47.048Z,1.70
2019-05-06T15:55:50.532Z,1.47
2019-05-06T15:58:54.994Z,1.60
2019-05-06T16:01:58.572Z,1.67
2019-05-06T16:05:11.292Z,1.52
2019-05-06T16:08:07.420Z,2.47
2019-05-06T16:11:12.575Z,3.33
2019-05-06T16:14:16.107Z,3.10
2019-05-06T16:17:20.581Z,1.50
2019-05-06T16:20:24.087Z,2.15
2019-05-06T16:23:37.843Z,2.02
2019-05-06T16:26:42.466Z,1.92
2019-05-06T16:29:46.662Z,1.90
2019-05-06T16:32:50.191Z,2.35
2019-05-06T16:35:54.748Z,1.40
2019-05-06T16:38:59.243Z,1.77
2019-05-06T16:42:03.694Z,1.90
2019-05-06T16:45:08.290Z,1.45
2019-05-06T16:48:13.827Z,1.52
2019-05-06T16:51:17.331Z,1.77
2019-05-06T16:54:20.819Z,1.37
2019-05-06T16:57:24.316Z,1.30
2019-05-06T17:00:29.500Z,1.32
2019-05-06T17:03:40.174Z,1.77
2019-05-06T17:06:43.945Z,1.45
2019-05-06T17:09:47.530Z,1.35
2019-05-06T17:12:53.432Z,1.20
2019-05-06T17:15:56.375Z,1.52
2019-05-06T17:19:03.284Z,1.42
2019-05-06T17:22:06.348Z,1.60
2019-05-06T17:25:10.882Z,1.65
2019-05-06T17:28:22.207Z,1.57
2019-05-06T17:31:49.194Z,1.32
2019-05-06T17:34:57.483Z,1.30
2019-05-06T17:38:08.621Z,1.55
2019-05-06T17:41:12.392Z,1.10
2019-05-06T17:44:17.094Z,1.50
2019-05-06T17:47:32.098Z,1.20
2019-05-06T17:50:35.742Z,1.35
2019-05-06T17:53:39.418Z,1.25
2019-05-06T17:56:43.946Z,1.30
2019-05-06T17:59:47.448Z,1.47
2019-05-06T18:02:52.667Z,1.00
2019-05-06T18:05:56.357Z,1.17
2019-05-06T18:08:59.812Z,1.05
2019-05-06T18:12:05.345Z,1.10
2019-05-06T18:15:08.848Z,1.07
2019-05-06T18:18:13.412Z,1.50
2019-05-06T18:21:16.909Z,1.22
2019-05-06T18:24:20.386Z,0.90
2019-05-06T18:27:24.883Z,1.35
2019-05-06T18:30:37.013Z,1.20
2019-05-06T18:33:39.510Z,1.17
2019-05-06T18:36:43.189Z,1.10
2019-05-06T18:39:46.695Z,1.30
2019-05-06T18:42:52.379Z,0.85
2019-05-06T18:45:55.390Z,1.17
2019-05-06T18:48:58.868Z,1.40
2019-05-06T18:52:02.509Z,0.82
2019-05-06T18:55:07.072Z,1.57
2019-05-06T18:58:12.725Z,1.10
2019-05-06T19:01:16.935Z,1.00
2019-05-06T19:04:41.757Z,1.10
2019-05-06T19:07:46.758Z,1.00
2019-05-06T19:10:50.244Z,1.10
2019-05-06T19:13:53.680Z,1.00
2019-05-06T19:16:57.274Z,1.37
2019-05-06T19:20:02.666Z,1.05
2019-05-06T19:23:06.212Z,3.12
2019-05-06T19:26:09.732Z,1.92
2019-05-06T19:29:13.227Z,1.10
2019-05-06T19:32:16.642Z,1.75
2019-05-06T19:35:20.187Z,1.30
2019-05-06T19:38:24.470Z,1.27
2019-05-06T19:41:34.201Z,1.32
2019-05-06T19:44:37.708Z,1.20
2019-05-06T19:47:43.251Z,1.80
2019-05-06T19:50:47.986Z,0.90
2019-05-06T19:53:51.465Z,2.10
2019-05-06T19:56:55.008Z,1.02
2019-05-06T19:59:59.500Z,1.67
2019-05-06T20:03:03.116Z,1.77
2019-05-06T20:06:34.813Z,1.20
2019-05-06T20:09:52.280Z,1.15
2019-05-06T20:13:02.757Z,1.27
2019-05-06T20:16:03.910Z,2.02
2019-05-06T20:19:07.316Z,1.42
2019-05-06T20:22:13.017Z,1.12
2019-05-06T20:25:16.631Z,1.20
2019-05-06T20:28:22.544Z,1.30
2019-05-06T20:31:26.319Z,1.35
2019-05-06T20:34:31.918Z,1.30
2019-05-06T20:37:34.967Z,1.15
2019-05-06T20:40:39.497Z,1.32
2019-05-06T20:43:42.991Z,1.52
2019-05-06T20:46:46.502Z,1.00
2019-05-06T20:49:49.988Z,1.10
2019-05-06T20:52:53.494Z,1.25
2019-05-06T20:55:57.001Z,1.37
2019-05-06T20:59:02.424Z,1.20
2019-05-06T21:02:05.737Z,1.30
2019-05-06T21:05:10.925Z,1.40
2019-05-06T21:08:14.696Z,1.45
2019-05-06T21:11:26.517Z,1.87
2019-05-06T21:14:23.648Z,1.00
2019-05-06T21:17:27.268Z,1.50
2019-05-06T21:20:32.882Z,1.10
2019-05-06T21:23:36.089Z,1.40
2019-05-06T21:26:42.525Z,1.20
2019-05-06T21:29:46.766Z,1.85
2019-05-06T21:32:52.077Z,1.45
2019-05-06T21:35:55.709Z,1.40
2019-05-06T21:38:59.316Z,1.20
2019-05-06T21:42:03.872Z,1.35
2019-05-06T21:45:07.311Z,1.37
2019-05-06T21:48:10.793Z,1.20
2019-05-06T21:51:14.241Z,1.15
2019-05-06T21:54:17.845Z,1.30
2019-05-06T21:57:24.417Z,1.50
2019-05-06T22:00:43.300Z,1.60
2019-05-06T22:03:46.298Z,1.40
2019-05-06T22:06:52.247Z,1.27
2019-05-06T22:09:56.027Z,1.30
2019-05-06T22:12:59.546Z,1.47
2019-05-06T22:16:04.902Z,1.72
2019-05-06T22:19:08.402Z,1.52
2019-05-06T22:22:14.619Z,1.40
2019-05-06T22:25:18.240Z,1.50
2019-05-06T22:28:22.719Z,1.32
2019-05-06T22:31:27.990Z,1.05
2019-05-06T22:34:32.987Z,1.00
2019-05-06T22:37:36.465Z,1.22
2019-05-06T22:40:39.949Z,1.40
2019-05-06T22:43:43.367Z,1.32
2019-05-06T22:46:48.059Z,1.12
2019-05-06T22:49:54.128Z,1.20
2019-05-06T22:52:56.726Z,1.37
2019-05-06T22:56:02.705Z,1.50
2019-05-06T22:59:07.247Z,1.40
2019-05-06T23:02:24.065Z,1.27
2019-05-06T23:05:27.521Z,1.40
2019-05-06T23:08:32.516Z,1.45
2019-05-06T23:11:37.785Z,1.35
2019-05-06T23:14:42.011Z,1.57
2019-05-06T23:17:45.722Z,1.40
2019-05-06T23:20:49.134Z,1.30
2019-05-06T23:23:54.603Z,1.10
2019-05-06T23:26:57.791Z,1.50
2019-05-06T23:30:03.152Z,1.30
2019-05-06T23:33:06.809Z,1.67
2019-05-06T23:36:12.087Z,1.40
2019-05-06T23:40:00.366Z,1.55
2019-05-06T23:43:42.508Z,1.35
2019-05-06T23:47:22.060Z,1.70
2019-05-06T23:51:02.288Z,1.42
2019-05-06T23:54:42.783Z,1.15
2019-05-06T23:57:45.362Z,1.40
